createdAt,value
2023-11-18T00:01:34.270Z,9.97
2023-11-18T00:04:02.232Z,9.90
2023-11-18T00:06:29.653Z,11.27
2023-11-18T00:08:57.066Z,10.70
2023-11-18T00:11:25.268Z,11.63
2023-11-18T00:13:52.797Z,11.23
2023-11-18T00:16:20.285Z,10.30
2023-11-18T00:18:48.245Z,10.40
2023-11-18T00:21:15.606Z,10.47
2023-11-18T00:23:43.069Z,10.43
2023-11-18T00:26:11.507Z,9.97
2023-11-18T00:28:39.008Z,9.20
2023-11-18T00:31:07.704Z,9.47
2023-11-18T00:33:35.479Z,9.60
2023-11-18T00:36:04.344Z,9.83
2023-11-18T00:38:31.771Z,17.37
2023-11-18T00:40:59.646Z,9.50
2023-11-18T00:43:27.377Z,8.83
2023-11-18T00:45:54.792Z,11.20
2023-11-18T00:48:22.460Z,11.03
2023-11-18T00:50:49.812Z,8.63
2023-11-18T00:53:17.174Z,9.90
2023-11-18T00:55:45.005Z,11.30
2023-11-18T00:58:12.429Z,10.90
2023-11-18T01:00:39.815Z,10.57
2023-11-18T01:03:07.594Z,8.97
2023-11-18T01:05:35.631Z,9.70
2023-11-18T01:08:03.762Z,8.17
2023-11-18T01:10:31.476Z,10.53
2023-11-18T01:12:58.988Z,10.03
2023-11-18T01:15:26.403Z,8.73
2023-11-18T01:17:54.288Z,9.20
2023-11-18T01:20:22.933Z,10.53
2023-11-18T01:22:50.595Z,9.00
2023-11-18T01:25:18.680Z,8.37
2023-11-18T01:27:49.167Z,8.23
2023-11-18T01:30:17.655Z,9.00
2023-11-18T01:32:45.450Z,8.60
2023-11-18T01:35:13.729Z,9.60
2023-11-18T01:37:41.348Z,8.20
2023-11-18T01:40:09.304Z,8.60
2023-11-18T01:42:38.156Z,7.53
2023-11-18T01:45:06.696Z,8.47
2023-11-18T01:47:34.852Z,7.83
2023-11-18T01:50:02.616Z,7.93
2023-11-18T01:52:31.648Z,9.23
2023-11-18T01:54:59.558Z,8.70
2023-11-18T01:57:28.100Z,8.70
2023-11-18T01:59:55.656Z,8.43
2023-11-18T02:02:23.529Z,8.43
2023-11-18T02:04:51.548Z,8.13
2023-11-18T02:07:19.145Z,9.77
2023-11-18T02:09:46.988Z,7.63
2023-11-18T02:12:22.995Z,8.10
2023-11-18T02:14:51.052Z,9.10
2023-11-18T02:17:25.363Z,8.10
2023-11-18T02:19:57.776Z,8.10
2023-11-18T02:22:25.814Z,7.13
2023-11-18T02:24:54.255Z,7.93
2023-11-18T02:27:23.359Z,8.80
2023-11-18T02:29:52.325Z,8.13
2023-11-18T02:32:27.939Z,8.17
2023-11-18T02:35:11.738Z,7.30
2023-11-18T02:37:40.431Z,7.83
2023-11-18T02:40:15.545Z,8.47
2023-11-18T02:42:44.505Z,7.67
2023-11-18T02:45:16.281Z,8.30
2023-11-18T02:47:47.102Z,7.93
2023-11-18T02:50:14.978Z,7.40
2023-11-18T02:52:43.158Z,8.60
2023-11-18T02:55:11.709Z,8.57
2023-11-18T02:57:39.312Z,9.07
2023-11-18T03:00:12.283Z,8.57
2023-11-18T03:02:40.732Z,9.57
2023-11-18T03:05:09.001Z,7.87
2023-11-18T03:07:36.433Z,8.77
2023-11-18T03:10:09.572Z,8.23
2023-11-18T03:12:36.957Z,9.23
2023-11-18T03:15:06.965Z,8.97
2023-11-18T03:17:34.816Z,8.53
2023-11-18T03:20:02.346Z,8.57
2023-11-18T03:22:30.677Z,8.03
2023-11-18T03:24:58.151Z,9.97
2023-11-18T03:27:25.533Z,8.23
2023-11-18T03:29:53.867Z,8.50
2023-11-18T03:32:22.571Z,9.70
2023-11-18T03:34:50.454Z,9.57
2023-11-18T03:37:18.162Z,8.47
2023-11-18T03:39:46.408Z,8.30
2023-11-18T03:42:13.846Z,8.50
2023-11-18T03:44:41.900Z,7.97
2023-11-18T03:47:09.361Z,9.10
2023-11-18T03:49:37.080Z,9.20
2023-11-18T03:52:05.330Z,9.97
2023-11-18T03:54:32.731Z,8.50
2023-11-18T03:57:00.706Z,9.20
2023-11-18T03:59:28.522Z,7.63
2023-11-18T04:01:55.974Z,8.60
2023-11-18T04:04:23.689Z,7.63
2023-11-18T04:06:51.365Z,7.23
2023-11-18T04:09:18.749Z,8.20
2023-11-18T04:11:47.169Z,7.83
2023-11-18T04:14:14.536Z,7.70
2023-11-18T04:16:42.882Z,7.27
2023-11-18T04:19:10.666Z,9.27
2023-11-18T04:21:38.019Z,6.50
2023-11-18T04:24:06.624Z,7.30
2023-11-18T04:26:34.264Z,6.90
2023-11-18T04:29:01.684Z,9.00
2023-11-18T04:31:29.037Z,7.30
2023-11-18T04:33:57.134Z,8.30
2023-11-18T04:36:24.521Z,8.47
2023-11-18T04:38:51.893Z,7.40
2023-11-18T04:41:19.715Z,7.73
2023-11-18T04:43:48.770Z,8.73
2023-11-18T04:46:16.413Z,7.27
2023-11-18T04:48:44.299Z,7.20
2023-11-18T04:51:13.252Z,6.27
2023-11-18T04:53:40.668Z,8.37
2023-11-18T04:56:11.707Z,7.40
2023-11-18T04:58:40.382Z,6.50
2023-11-18T05:01:08.128Z,6.37
2023-11-18T05:03:36.137Z,6.10
2023-11-18T05:06:05.081Z,6.27
2023-11-18T05:08:34.773Z,5.90
2023-11-18T05:11:02.365Z,5.70
2023-11-18T05:13:30.869Z,6.93
2023-11-18T05:15:58.492Z,5.73
2023-11-18T05:18:26.196Z,6.20
2023-11-18T05:20:55.493Z,8.73
2023-11-18T05:23:23.143Z,9.17
2023-11-18T05:25:51.132Z,5.80
2023-11-18T05:28:18.511Z,6.30
2023-11-18T05:30:46.196Z,6.97
2023-11-18T05:33:18.757Z,7.83
2023-11-18T05:35:50.479Z,6.40
2023-11-18T05:38:22.921Z,6.10
2023-11-18T05:40:58.018Z,7.27
2023-11-18T05:43:31.096Z,7.87
2023-11-18T05:46:15.955Z,6.20
2023-11-18T05:48:45.038Z,6.80
2023-11-18T05:51:12.861Z,6.33
2023-11-18T05:53:47.476Z,8.43
2023-11-18T05:56:15.689Z,7.43
2023-11-18T05:58:44.465Z,6.30
2023-11-18T06:01:12.882Z,5.67
2023-11-18T06:03:41.104Z,5.80
2023-11-18T06:06:09.085Z,6.60
2023-11-18T06:08:37.120Z,6.60
2023-11-18T06:11:13.973Z,5.93
2023-11-18T06:13:51.807Z,7.60
2023-11-18T06:16:21.549Z,6.83
2023-11-18T06:18:51.047Z,5.00
2023-11-18T06:21:19.991Z,6.37
2023-11-18T06:23:50.978Z,6.73
2023-11-18T06:26:21.549Z,7.93
2023-11-18T06:28:50.449Z,6.40
2023-11-18T06:31:18.416Z,6.37
2023-11-18T06:33:46.994Z,5.50
2023-11-18T06:36:14.626Z,5.80
2023-11-18T06:38:42.362Z,6.17
2023-11-18T06:41:12.985Z,9.83
2023-11-18T06:43:53.619Z,6.80
2023-11-18T06:46:23.858Z,6.07
2023-11-18T06:48:55.311Z,8.23
2023-11-18T06:51:25.544Z,6.37
2023-11-18T06:53:53.287Z,5.07
2023-11-18T06:56:20.805Z,5.90
2023-11-18T06:58:48.195Z,6.40
2023-11-18T07:01:16.263Z,5.67
2023-11-18T07:03:44.830Z,6.43
2023-11-18T07:06:15.414Z,6.60
2023-11-18T07:08:43.028Z,7.33
2023-11-18T07:11:10.874Z,5.97
2023-11-18T07:13:40.049Z,9.07
2023-11-18T07:16:10.136Z,5.00
2023-11-18T07:18:39.173Z,9.53
2023-11-18T07:21:06.610Z,6.53
2023-11-18T07:23:34.350Z,5.53
2023-11-18T07:26:02.169Z,5.83
2023-11-18T07:28:29.786Z,6.57
2023-11-18T07:30:59.247Z,6.20
2023-11-18T07:33:27.260Z,5.07
2023-11-18T07:35:55.105Z,6.17
2023-11-18T07:38:22.874Z,6.43
2023-11-18T07:40:50.328Z,5.87
2023-11-18T07:43:17.726Z,6.93
2023-11-18T07:45:45.504Z,4.57
2023-11-18T07:48:13.301Z,4.53
2023-11-18T07:50:45.705Z,5.63
2023-11-18T07:53:13.556Z,5.90
2023-11-18T07:55:41.142Z,4.57
2023-11-18T07:58:14.405Z,6.50
2023-11-18T08:00:42.614Z,5.50
2023-11-18T08:03:13.348Z,4.47
2023-11-18T08:05:47.490Z,5.20
2023-11-18T08:08:18.071Z,6.63
2023-11-18T08:10:46.080Z,7.53
2023-11-18T08:13:14.173Z,6.00
2023-11-18T08:15:42.904Z,5.60
2023-11-18T08:18:13.231Z,4.70
2023-11-18T08:20:40.795Z,5.33
2023-11-18T08:23:08.470Z,6.03
2023-11-18T08:25:37.261Z,5.63
2023-11-18T08:28:05.883Z,5.87
2023-11-18T08:30:37.176Z,5.10
2023-11-18T08:33:10.703Z,4.90
2023-11-18T08:35:38.651Z,4.35
2023-11-18T08:38:08.747Z,5.23
2023-11-18T08:40:37.289Z,4.32
2023-11-18T08:43:08.761Z,4.50
2023-11-18T08:45:37.519Z,5.17
2023-11-18T08:48:09.496Z,4.30
2023-11-18T08:50:37.732Z,4.30
2023-11-18T08:53:06.846Z,4.40
2023-11-18T08:55:42.398Z,6.00
2023-11-18T08:58:23.449Z,4.27
2023-11-18T09:00:56.168Z,5.17
2023-11-18T09:03:37.611Z,4.53
2023-11-18T09:06:07.494Z,5.07
2023-11-18T09:08:36.655Z,5.80
2023-11-18T09:11:08.122Z,5.30
2023-11-18T09:13:36.411Z,4.03
2023-11-18T09:16:05.245Z,5.37
2023-11-18T09:18:34.914Z,3.80
2023-11-18T09:21:04.645Z,3.85
2023-11-18T09:23:33.196Z,5.50
2023-11-18T09:26:00.629Z,3.50
2023-11-18T09:28:31.464Z,6.43
2023-11-18T09:30:59.144Z,3.95
2023-11-18T09:33:27.111Z,8.70
2023-11-18T09:36:01.077Z,5.37
2023-11-18T09:38:29.929Z,5.27
2023-11-18T09:41:04.276Z,5.37
2023-11-18T09:43:34.016Z,4.70
2023-11-18T09:46:13.561Z,3.93
2023-11-18T09:49:03.099Z,3.83
2023-11-18T09:51:36.311Z,3.85
2023-11-18T09:54:11.237Z,4.35
2023-11-18T09:56:47.977Z,4.40
2023-11-18T09:59:24.967Z,5.03
2023-11-18T10:01:58.838Z,3.78
2023-11-18T10:04:29.005Z,4.50
2023-11-18T10:06:57.674Z,4.25
2023-11-18T10:09:41.021Z,4.53
2023-11-18T10:12:08.890Z,5.50
2023-11-18T10:14:36.577Z,4.40
2023-11-18T10:17:08.214Z,5.53
2023-11-18T10:19:58.386Z,5.22
2023-11-18T10:22:30.330Z,5.53
2023-11-18T10:24:58.396Z,5.70
2023-11-18T10:27:26.446Z,5.03
2023-11-18T10:30:06.957Z,4.90
2023-11-18T10:32:37.377Z,4.85
2023-11-18T10:35:09.062Z,6.00
2023-11-18T10:37:43.328Z,5.30
2023-11-18T10:40:14.677Z,5.53
2023-11-18T10:42:44.095Z,5.37
2023-11-18T10:45:14.249Z,5.00
2023-11-18T10:47:43.726Z,6.47
2023-11-18T10:50:11.734Z,6.03
2023-11-18T10:52:42.383Z,4.75
2023-11-18T10:55:13.840Z,6.95
2023-11-18T10:57:43.431Z,4.80
2023-11-18T11:00:16.105Z,5.45
2023-11-18T11:02:44.270Z,4.82
2023-11-18T11:05:21.000Z,4.65
2023-11-18T11:07:50.089Z,7.32
2023-11-18T11:10:18.088Z,4.80
2023-11-18T11:12:53.355Z,5.53
2023-11-18T11:15:30.262Z,4.28
2023-11-18T11:18:10.041Z,4.87
2023-11-18T11:20:43.455Z,6.97
2023-11-18T11:23:22.898Z,5.57
2023-11-18T11:26:05.759Z,5.70
2023-11-18T11:28:47.802Z,5.45
2023-11-18T11:31:23.912Z,5.18
2023-11-18T11:33:59.939Z,5.53
2023-11-18T11:36:32.589Z,4.80
2023-11-18T11:38:59.937Z,4.85
2023-11-18T11:41:27.962Z,4.87
2023-11-18T11:44:00.161Z,5.60
2023-11-18T11:46:34.434Z,7.28
2023-11-18T11:49:09.715Z,4.68
2023-11-18T11:51:56.644Z,4.70
2023-11-18T11:54:37.922Z,4.72
2023-11-18T11:57:07.234Z,7.22
2023-11-18T11:59:45.910Z,4.80
2023-11-18T12:02:23.303Z,4.97
2023-11-18T12:04:53.867Z,5.35
2023-11-18T12:07:24.219Z,6.05
2023-11-18T12:09:54.847Z,5.10
2023-11-18T12:12:22.793Z,6.53
2023-11-18T12:15:22.776Z,6.85
2023-11-18T12:18:00.324Z,7.62
2023-11-18T12:20:44.057Z,5.32
2023-11-18T12:23:24.267Z,6.30
2023-11-18T12:25:55.478Z,5.25
2023-11-18T12:28:31.988Z,6.43
2023-11-18T12:31:07.587Z,5.60
2023-11-18T12:33:54.408Z,5.10
2023-11-18T12:36:31.669Z,5.32
2023-11-18T12:39:21.240Z,6.05
2023-11-18T12:42:07.660Z,5.10
2023-11-18T12:45:23.360Z,4.72
2023-11-18T12:47:52.409Z,4.93
2023-11-18T12:50:25.651Z,5.50
2023-11-18T12:52:53.742Z,5.30
2023-11-18T12:55:21.565Z,5.32
2023-11-18T12:57:49.401Z,5.95
2023-11-18T13:00:29.276Z,5.47
2023-11-18T13:02:59.276Z,6.55
2023-11-18T13:05:31.308Z,5.47
2023-11-18T13:08:00.397Z,9.68
2023-11-18T13:10:28.246Z,6.30
2023-11-18T13:12:55.672Z,7.35
2023-11-18T13:15:25.691Z,5.95
2023-11-18T13:18:02.698Z,6.25
2023-11-18T13:20:30.445Z,6.10
2023-11-18T13:22:57.919Z,7.25
2023-11-18T13:25:25.338Z,6.30
2023-11-18T13:27:52.992Z,6.00
2023-11-18T13:30:21.872Z,6.80
2023-11-18T13:32:50.721Z,6.03
2023-11-18T13:35:20.582Z,5.35
2023-11-18T13:37:50.110Z,5.30
2023-11-18T13:40:20.650Z,5.30
2023-11-18T13:42:48.102Z,5.47
2023-11-18T13:45:30.662Z,7.37
2023-11-18T13:48:04.112Z,9.05
2023-11-18T13:50:31.657Z,16.25
2023-11-18T13:52:59.550Z,24.98
2023-11-18T13:55:28.873Z,31.30
2023-11-18T13:57:58.752Z,16.92
2023-11-18T14:00:31.240Z,15.48
2023-11-18T14:03:05.912Z,13.13
2023-11-18T14:05:34.619Z,12.00
2023-11-18T14:08:09.853Z,7.53
2023-11-18T14:10:39.623Z,10.35
2023-11-18T14:13:07.440Z,6.78
2023-11-18T14:15:37.690Z,7.65
2023-11-18T14:18:05.504Z,6.95
2023-11-18T14:20:33.245Z,7.72
2023-11-18T14:23:00.739Z,6.20
2023-11-18T14:25:28.484Z,6.10
2023-11-18T14:27:56.137Z,6.07
2023-11-18T14:30:26.648Z,5.72
2023-11-18T14:32:54.076Z,6.82
2023-11-18T14:35:22.072Z,5.87
2023-11-18T14:37:49.803Z,6.00
2023-11-18T14:40:17.439Z,5.45
2023-11-18T14:42:46.710Z,4.97
2023-11-18T14:45:14.829Z,5.60
2023-11-18T14:47:42.481Z,5.90
2023-11-18T14:50:18.956Z,6.80
2023-11-18T14:52:55.572Z,6.72
2023-11-18T14:55:23.349Z,6.57
2023-11-18T14:57:51.418Z,13.53
2023-11-18T15:00:25.948Z,6.83
2023-11-18T15:02:56.789Z,14.13
2023-11-18T15:05:26.977Z,9.77
2023-11-18T15:07:55.870Z,6.20
2023-11-18T15:10:24.248Z,7.17
2023-11-18T15:12:56.063Z,6.17
2023-11-18T15:15:24.059Z,7.28
2023-11-18T15:17:51.883Z,6.65
2023-11-18T15:20:19.776Z,8.40
2023-11-18T15:22:47.534Z,9.33
2023-11-18T15:25:15.032Z,8.55
2023-11-18T15:27:44.369Z,8.03
2023-11-18T15:30:12.659Z,9.70
2023-11-18T15:32:41.736Z,6.67
2023-11-18T15:35:12.099Z,8.23
2023-11-18T15:37:42.380Z,7.87
2023-11-18T15:40:11.765Z,14.37
2023-11-18T15:42:42.705Z,9.03
2023-11-18T15:45:14.345Z,16.67
2023-11-18T15:47:43.854Z,9.17
2023-11-18T15:50:19.796Z,9.73
2023-11-18T15:52:49.049Z,8.63
2023-11-18T15:55:18.360Z,15.67
2023-11-18T15:57:53.571Z,7.47
2023-11-18T16:00:21.703Z,8.02
2023-11-18T16:02:50.113Z,16.60
2023-11-18T16:05:19.474Z,11.37
2023-11-18T16:07:46.996Z,8.63
2023-11-18T16:10:22.762Z,10.50
2023-11-18T16:12:53.906Z,10.80
2023-11-18T16:15:23.094Z,8.33
2023-11-18T16:17:50.930Z,7.67
2023-11-18T16:20:19.617Z,8.20
2023-11-18T16:22:50.865Z,7.37
2023-11-18T16:25:21.103Z,6.87
2023-11-18T16:27:49.102Z,7.07
2023-11-18T16:30:16.737Z,7.37
2023-11-18T16:32:47.085Z,8.27
2023-11-18T16:35:17.546Z,7.83
2023-11-18T16:37:45.011Z,8.10
2023-11-18T16:40:15.177Z,7.20
2023-11-18T16:42:43.671Z,7.47
2023-11-18T16:45:12.021Z,7.07
2023-11-18T16:47:40.304Z,9.33
2023-11-18T16:50:15.553Z,8.10
2023-11-18T16:52:42.969Z,8.27
2023-11-18T16:55:10.701Z,8.00
2023-11-18T16:57:38.240Z,9.80
2023-11-18T17:00:24.197Z,7.87
2023-11-18T17:02:59.294Z,9.93
2023-11-18T17:05:32.258Z,7.43
2023-11-18T17:08:01.850Z,8.23
2023-11-18T17:10:29.905Z,6.40
2023-11-18T17:12:59.031Z,6.93
2023-11-18T17:15:26.957Z,7.97
2023-11-18T17:18:03.206Z,7.53
2023-11-18T17:20:32.216Z,9.93
2023-11-18T17:23:00.052Z,8.17
2023-11-18T17:25:27.644Z,8.33
2023-11-18T17:27:55.282Z,9.80
2023-11-18T17:30:22.687Z,9.10
2023-11-18T17:32:51.833Z,8.67
2023-11-18T17:35:21.398Z,7.73
2023-11-18T17:37:48.963Z,10.20
2023-11-18T17:40:17.111Z,6.97
2023-11-18T17:42:45.640Z,9.10
2023-11-18T17:45:13.824Z,7.10
2023-11-18T17:47:44.019Z,8.07
2023-11-18T17:50:14.022Z,8.43
2023-11-18T17:52:45.079Z,7.33
2023-11-18T17:55:18.848Z,7.73
2023-11-18T17:57:47.470Z,12.67
2023-11-18T18:00:21.420Z,8.17
2023-11-18T18:02:50.109Z,8.17
2023-11-18T18:05:17.934Z,7.87
2023-11-18T18:07:45.364Z,39.73
2023-11-18T18:10:16.939Z,9.23
2023-11-18T18:12:47.765Z,10.73
2023-11-18T18:15:15.727Z,8.70
2023-11-18T18:17:43.969Z,16.03
2023-11-18T18:20:13.309Z,9.30
2023-11-18T18:22:41.510Z,7.93
2023-11-18T18:25:10.042Z,11.30
2023-11-18T18:27:37.625Z,10.93
2023-11-18T18:30:05.829Z,8.03
2023-11-18T18:32:34.028Z,11.00
2023-11-18T18:35:01.648Z,9.93
2023-11-18T18:37:29.548Z,8.97
2023-11-18T18:39:57.172Z,10.53
2023-11-18T18:42:25.715Z,11.80
2023-11-18T18:44:57.567Z,11.90
2023-11-18T18:47:26.955Z,9.33
2023-11-18T18:49:56.537Z,9.80
2023-11-18T18:52:23.946Z,11.53
2023-11-18T18:54:51.400Z,10.60
2023-11-18T18:57:19.232Z,13.47
2023-11-18T18:59:46.708Z,9.10
2023-11-18T19:02:14.418Z,13.67
2023-11-18T19:04:43.502Z,11.67
2023-11-18T19:07:11.219Z,10.77
2023-11-18T19:09:38.681Z,12.00
2023-11-18T19:12:06.787Z,16.37
2023-11-18T19:14:34.298Z,14.43
2023-11-18T19:17:04.931Z,13.20
2023-11-18T19:19:32.941Z,10.73
2023-11-18T19:22:01.729Z,12.13
2023-11-18T19:24:31.727Z,12.83
2023-11-18T19:26:59.688Z,10.47
2023-11-18T19:29:29.493Z,10.13
2023-11-18T19:31:56.909Z,10.07
2023-11-18T19:34:24.561Z,9.60
2023-11-18T19:36:52.738Z,14.47
2023-11-18T19:39:20.730Z,10.40
2023-11-18T19:41:48.396Z,11.23
2023-11-18T19:44:17.390Z,11.43
2023-11-18T19:46:51.060Z,10.87
2023-11-18T19:49:18.925Z,9.60
2023-11-18T19:51:46.811Z,14.37
2023-11-18T19:54:14.316Z,11.10
2023-11-18T19:56:41.964Z,9.63
2023-11-18T19:59:09.427Z,11.10
2023-11-18T20:01:37.172Z,16.07
2023-11-18T20:04:06.318Z,10.30
2023-11-18T20:06:35.364Z,10.87
2023-11-18T20:09:03.946Z,8.90
2023-11-18T20:11:32.223Z,14.97
2023-11-18T20:13:59.681Z,14.43
2023-11-18T20:16:27.180Z,12.50
2023-11-18T20:18:54.815Z,12.63
2023-11-18T20:21:22.206Z,11.13
2023-11-18T20:23:49.981Z,10.77
2023-11-18T20:26:17.639Z,9.90
2023-11-18T20:28:46.590Z,9.80
2023-11-18T20:31:14.125Z,10.37
2023-11-18T20:33:43.331Z,9.47
2023-11-18T20:36:11.035Z,10.57
2023-11-18T20:38:38.627Z,9.80
2023-11-18T20:41:06.384Z,11.40
2023-11-18T20:43:34.142Z,12.07
2023-11-18T20:46:01.810Z,13.43
2023-11-18T20:48:29.541Z,11.03
2023-11-18T20:50:57.276Z,9.67
2023-11-18T20:53:25.599Z,12.23
2023-11-18T20:55:53.364Z,10.47
2023-11-18T20:58:21.164Z,10.73
2023-11-18T21:00:48.805Z,11.17
2023-11-18T21:03:16.644Z,12.07
2023-11-18T21:05:44.338Z,11.07
2023-11-18T21:08:13.928Z,11.43
2023-11-18T21:10:41.577Z,10.47
2023-11-18T21:13:09.045Z,11.63
2023-11-18T21:15:37.686Z,12.90
2023-11-18T21:18:05.362Z,11.07
2023-11-18T21:20:32.783Z,10.60
2023-11-18T21:23:00.629Z,10.73
2023-11-18T21:25:28.286Z,11.33
2023-11-18T21:28:04.066Z,10.70
2023-11-18T21:30:33.368Z,11.63
2023-11-18T21:33:04.765Z,12.00
2023-11-18T21:35:32.655Z,14.73
2023-11-18T21:38:00.057Z,11.90
2023-11-18T21:40:29.633Z,11.30
2023-11-18T21:42:58.931Z,12.43
2023-11-18T21:45:28.858Z,12.20
2023-11-18T21:48:05.253Z,12.13
2023-11-18T21:50:34.524Z,13.45
2023-11-18T21:53:03.776Z,11.90
2023-11-18T21:55:31.414Z,13.30
2023-11-18T21:57:58.896Z,12.13
2023-11-18T22:00:26.568Z,12.40
2023-11-18T22:02:54.520Z,11.73
2023-11-18T22:05:22.421Z,11.20
2023-11-18T22:07:50.030Z,14.93
2023-11-18T22:10:18.855Z,13.43
2023-11-18T22:12:46.472Z,10.37
2023-11-18T22:15:17.780Z,10.87
2023-11-18T22:17:46.548Z,12.20
2023-11-18T22:20:16.013Z,11.67
2023-11-18T22:22:43.476Z,10.70
2023-11-18T22:25:11.139Z,13.20
2023-11-18T22:27:41.620Z,14.67
2023-11-18T22:30:12.642Z,9.30
2023-11-18T22:32:40.972Z,12.13
2023-11-18T22:35:09.147Z,11.03
2023-11-18T22:37:36.675Z,12.33
2023-11-18T22:40:10.121Z,12.10
2023-11-18T22:42:38.975Z,12.33
2023-11-18T22:45:16.921Z,13.10
2023-11-18T22:47:45.631Z,12.77
2023-11-18T22:50:14.101Z,12.13
2023-11-18T22:52:41.672Z,13.73
2023-11-18T22:57:40.560Z,12.83
2023-11-18T23:00:15.901Z,12.43
2023-11-18T23:02:43.776Z,13.50
2023-11-18T23:05:15.155Z,11.13
2023-11-18T23:07:45.988Z,10.77
2023-11-18T23:10:15.396Z,14.83
2023-11-18T23:12:42.798Z,13.60
2023-11-18T23:15:10.249Z,12.50
2023-11-18T23:17:38.065Z,11.23
2023-11-18T23:20:12.012Z,11.40
2023-11-18T23:22:39.987Z,11.70
2023-11-18T23:25:07.666Z,12.00
2023-11-18T23:27:35.085Z,10.87
2023-11-18T23:30:03.960Z,14.23
2023-11-18T23:32:34.100Z,10.83
2023-11-18T23:35:02.505Z,11.83
2023-11-18T23:37:30.550Z,11.13
2023-11-18T23:39:57.951Z,10.03
2023-11-18T23:42:25.362Z,10.93
2023-11-18T23:44:53.276Z,11.40
2023-11-18T23:47:21.024Z,12.57
2023-11-18T23:49:57.335Z,11.33
2023-11-18T23:52:25.556Z,11.00
2023-11-18T23:54:53.223Z,12.63
2023-11-18T23:57:20.701Z,11.20
2023-11-18T23:59:48.354Z,12.47
